Time;durP1;ratioP1;P1;durP2;ratioP2;P2;SDS_P1;SDS_P2;PMS_P1;PMS_P2;Temp;Humidity;BMP_temperature;BMP_pressure;BME280_temperature;BME280_humidity;BME280_pressure;Samples;Min_cycle;Max_cycle;Signal;HPM_P1;HPM_P2
2021/01/20 00:02:21;;;;;;;148.40;89.03;;;26.50;1740.80;;;;;;4897515;29;20071;-69
2021/01/20 00:04:47;;;;;;;136.95;85.28;;;51.80;1689.60;;;;;;4897403;29;20060;-69
2021/01/20 00:07:13;;;;;;;117.30;65.13;;;51.60;1689.60;;;;;;4897301;29;20024;-69
2021/01/20 00:09:42;;;;;;;138.18;71.75;;;26.50;1715.20;;;;;;4908664;29;20028;-69
2021/01/20 00:12:08;;;;;;;129.80;70.00;;;51.20;1740.80;;;;;;4916426;29;20024;-68
2021/01/20 00:14:34;;;;;;;112.57;64.72;;;51.60;1715.20;;;;;;4916870;29;20497;-69
2021/01/20 00:17:00;;;;;;;103.55;56.58;;;51.90;1664.00;;;;;;4916461;29;20126;-69
2021/01/20 00:19:25;;;;;;;96.05;56.08;;;52.10;1664.00;;;;;;4916277;29;20028;-70
2021/01/20 00:21:52;;;;;;;87.07;51.15;;;;;;;;;;4916325;29;20024;-70
2021/01/20 00:24:17;;;;;;;102.95;59.38;;;77.00;1587.20;;;;;;4915999;29;20107;-69
2021/01/20 00:26:43;;;;;;;104.35;60.55;;;51.90;1638.40;;;;;;4916368;29;20546;-69
2021/01/20 00:29:09;;;;;;;124.32;75.05;;;51.50;1715.20;;;;;;4913206;29;20104;-70
2021/01/20 00:31:34;;;;;;;141.35;86.03;;;52.10;1638.40;;;;;;4906119;29;20027;-71
2021/01/20 00:34:00;;;;;;;161.70;95.60;;;52.10;1664.00;;;;;;4897069;29;20044;-70
2021/01/20 00:36:25;;;;;;;174.30;101.03;;;77.10;1612.80;;;;;;4907054;29;20028;-70
2021/01/20 00:38:51;;;;;;;190.05;109.03;;;52.10;1638.40;;;;;;4897121;29;20025;-69
2021/01/20 00:41:17;;;;;;;162.50;95.63;;;51.80;1664.00;;;;;;4896580;29;20095;-70
2021/01/20 00:43:43;;;;;;;168.40;97.82;;;52.00;1689.60;;;;;;4897811;29;20055;-71
2021/01/20 00:46:08;;;;;;;162.32;94.28;;;77.00;1638.40;;;;;;4897562;29;20509;-70
2021/01/20 00:48:34;;;;;;;154.05;95.93;;;52.10;1664.00;;;;;;4902207;29;20028;-70
2021/01/20 00:51:00;;;;;;;112.00;65.40;;;51.60;1715.20;;;;;;4907554;29;20058;-72
2021/01/20 00:53:25;;;;;;;113.43;64.10;;;51.30;1740.80;;;;;;4897179;29;20445;-75
2021/01/20 00:55:51;;;;;;;124.82;73.68;;;52.00;1664.00;;;;;;4899906;29;20115;-76
2021/01/20 00:58:17;;;;;;;149.18;100.90;;;;;;;;;;4898030;29;20096;-76
2021/01/20 01:00:43;;;;;;;152.73;100.35;;;77.00;1612.80;;;;;;4897468;29;20424;-76
2021/01/20 01:03:10;;;;;;;134.13;77.90;;;52.00;1664.00;;;;;;4897531;29;20091;-74
2021/01/20 01:05:36;;;;;;;111.80;67.13;;;51.70;1689.60;;;;;;4897672;29;20099;-75
2021/01/20 01:08:01;;;;;;;122.47;67.38;;;51.40;1740.80;;;;;;4897632;29;20489;-74
2021/01/20 01:10:27;;;;;;;151.48;78.53;;;51.40;1740.80;;;;;;4897470;29;20041;-72
2021/01/20 01:12:53;;;;;;;115.20;66.60;;;51.60;1715.20;;;;;;4897782;29;20052;-72
2021/01/20 01:15:19;;;;;;;118.35;69.22;;;51.80;1715.20;;;;;;4897659;29;20476;-72
2021/01/20 01:17:44;;;;;;;115.30;73.10;;;77.00;1715.20;;;;;;4897393;29;20065;-71
2021/01/20 01:20:11;;;;;;;111.30;63.65;;;51.90;1689.60;;;;;;4897722;29;20452;-70
2021/01/20 01:22:37;;;;;;;112.85;62.92;;;;;;;;;;4897173;29;20021;-71
2021/01/20 01:25:04;;;;;;;122.18;79.05;;;76.90;1664.00;;;;;;4897544;29;20024;-70
2021/01/20 01:27:29;;;;;;;319.27;163.10;;;77.00;1664.00;;;;;;4897450;29;20043;-70
2021/01/20 01:29:55;;;;;;;538.50;287.55;;;77.20;1612.80;;;;;;4897619;29;20099;-75
2021/01/20 01:32:21;;;;;;;184.15;100.47;;;77.40;1587.20;;;;;;4897245;29;20029;-75
2021/01/20 01:34:46;;;;;;;287.67;135.93;;;77.30;1612.80;;;;;;4896262;29;20451;-74
2021/01/20 01:37:12;;;;;;;163.10;88.65;;;77.30;1587.20;;;;;;4897180;29;20043;-74
2021/01/20 01:39:38;;;;;;;235.07;110.00;;;77.20;1638.40;;;;;;4897359;29;20028;-75
2021/01/20 01:42:04;;;;;;;209.27;97.75;;;77.20;1612.80;;;;;;4897222;29;20025;-73
2021/01/20 01:44:33;;;;;;;110.05;61.75;;;77.10;1612.80;;;;;;4897137;29;20104;-73
2021/01/20 01:46:59;;;;;;;97.53;60.53;;;76.80;1664.00;;;;;;4897483;29;20024;-72
2021/01/20 01:49:25;;;;;;;124.43;72.95;;;52.10;1664.00;;;;;;4897235;29;20039;-72
2021/01/20 01:51:53;;;;;;;116.70;71.85;;;52.00;1689.60;;;;;;4897348;29;20099;-72
2021/01/20 01:56:44;;;;;;;107.15;65.72;;;77.30;1612.80;;;;;;4974096;23;20063;-74
2021/01/20 01:59:12;;;;;;;101.88;57.63;;;77.20;1612.80;;;;;;4918094;29;20035;-74
2021/01/20 02:01:38;;;;;;;81.35;48.50;;;76.90;1638.40;;;;;;4919772;29;20071;-75
2021/01/20 02:04:03;;;;;;;90.57;52.20;;;51.90;1715.20;;;;;;4919193;29;20028;-73
2021/01/20 02:06:29;;;;;;;95.93;54.10;;;76.80;1664.00;;;;;;4919276;29;20032;-73
2021/01/20 02:08:55;;;;;;;86.03;50.08;;;76.90;1664.00;;;;;;4919400;29;20103;-74
2021/01/20 02:11:51;;;;;;;97.97;58.42;;;77.10;1612.80;;;;;;4919191;29;20028;-73
2021/01/20 02:14:34;;;;;;;99.35;58.60;;;77.00;1612.80;;;;;;4919434;29;20554;-74
2021/01/20 02:17:22;;;;;;;129.00;73.25;;;51.70;1689.60;;;;;;4919144;29;20123;-74
2021/01/20 02:20:02;;;;;;;149.80;87.95;;;51.70;1715.20;;;;;;4919031;29;20107;-74
2021/01/20 02:22:42;;;;;;;145.98;84.75;;;76.90;1664.00;;;;;;4918951;29;20513;-73
2021/01/20 02:25:14;;;;;;;121.25;71.47;;;77.20;1612.80;;;;;;4919012;29;20510;-70
2021/01/20 02:27:47;;;;;;;;;;;77.20;1612.80;;;;;;4919482;29;20087;-70
2021/01/20 02:30:14;;;;;;;90.18;52.78;;;77.40;1612.80;;;;;;4918756;29;19907;-69
2021/01/20 02:32:42;;;;;;;91.97;53.65;;;77.50;1587.20;;;;;;4919092;29;20035;-70
2021/01/20 02:35:10;;;;;;;93.40;55.30;;;77.50;1587.20;;;;;;4918939;29;20028;-69
2021/01/20 02:37:37;;;;;;;82.15;48.78;;;77.50;1587.20;;;;;;4918892;29;20047;-69
2021/01/20 02:40:04;;;;;;;71.85;42.53;;;77.50;1587.20;;;;;;4918815;29;20168;-70
2021/01/20 02:42:30;;;;;;;76.75;44.33;;;76.90;1638.40;;;;;;4918922;29;20024;-69
2021/01/20 02:44:57;;;;;;;86.78;51.00;;;77.10;1638.40;;;;;;4918525;29;20025;-70
2021/01/20 02:47:23;;;;;;;105.28;64.53;;;77.30;1587.20;;;;;;4918731;29;20027;-66
2021/01/20 02:49:49;;;;;;;92.40;61.42;;;77.60;1587.20;;;;;;4918965;29;20201;-70
2021/01/20 02:52:31;;;;;;;101.10;63.15;;;77.50;1587.20;;;;;;4917166;29;20067;-72
2021/01/20 02:55:00;;;;;;;103.57;60.28;;;77.70;1587.20;;;;;;4918318;29;20048;-70
2021/01/20 02:57:28;;;;;;;106.32;61.63;;;102.40;1561.60;;;;;;4918222;29;20040;-70
2021/01/20 02:59:56;;;;;;;110.53;65.20;;;102.50;1536.00;;;;;;4918666;29;20023;-70
2021/01/20 03:02:23;;;;;;;134.68;78.95;;;77.60;1587.20;;;;;;4918276;29;20144;-70
2021/01/20 03:04:52;;;;;;;235.13;137.93;;;102.50;1587.20;;;;;;4918257;29;20039;-71
2021/01/20 03:07:20;;;;;;;270.95;151.85;;;102.50;1587.20;;;;;;4918540;29;20047;-69
2021/01/20 03:09:47;;;;;;;277.90;159.63;;;102.60;1587.20;;;;;;4917408;29;20044;-70
2021/01/20 03:12:12;;;;;;;290.50;173.55;;;102.50;1587.20;;;;;;4918300;29;20072;-69
2021/01/20 03:14:43;;;;;;;235.98;139.40;;;77.50;1638.40;;;;;;4918077;29;20423;-68
2021/01/20 03:17:08;;;;;;;220.68;131.15;;;77.60;1638.40;;;;;;4918162;29;20099;-70
2021/01/20 03:19:34;;;;;;;227.45;137.02;;;77.70;1638.40;;;;;;4917995;29;20028;-71
2021/01/20 03:21:59;;;;;;;217.95;129.73;;;102.40;1612.80;;;;;;4918388;29;20032;-69
2021/01/20 03:24:25;;;;;;;211.00;129.45;;;102.50;1612.80;;;;;;4917796;29;20071;-70
2021/01/20 03:26:51;;;;;;;204.68;123.95;;;102.50;1612.80;;;;;;4917742;29;20435;-70
2021/01/20 03:29:16;;;;;;;189.57;115.95;;;102.70;1587.20;;;;;;4916747;29;20043;-70
2021/01/20 03:31:42;;;;;;;301.90;171.93;;;102.70;1587.20;;;;;;4917799;29;20032;-70
2021/01/20 03:34:08;;;;;;;377.73;226.23;;;102.70;1612.80;;;;;;4917960;29;20031;-70
2021/01/20 03:36:34;;;;;;;408.15;242.52;;;102.50;1638.40;;;;;;4917605;29;20412;-71
2021/01/20 03:38:59;;;;;;;405.52;243.82;;;102.40;1638.40;;;;;;4917616;29;20391;-70
2021/01/20 03:41:25;;;;;;;437.80;269.70;;;77.60;1664.00;;;;;;4917703;29;20487;-71
2021/01/20 03:43:51;;;;;;;426.92;260.00;;;102.40;1638.40;;;;;;4917675;29;20028;-71
2021/01/20 03:46:17;;;;;;;456.00;292.63;;;;;;;;;;4917417;29;20024;-73
2021/01/20 03:48:42;;;;;;;497.15;320.95;;;102.70;1612.80;;;;;;4917769;29;20158;-71
2021/01/20 03:51:08;;;;;;;490.48;319.83;;;102.50;1638.40;;;;;;4917502;29;20039;-73
2021/01/20 03:53:34;;;;;;;486.30;318.50;;;102.60;1638.40;;;;;;4917350;29;20075;-75
2021/01/20 03:55:59;;;;;;;533.30;341.88;;;102.70;1612.80;;;;;;4916705;29;20064;-74
2021/01/20 03:58:25;;;;;;;487.15;312.42;;;102.70;1638.40;;;;;;4917142;29;20035;-70
2021/01/20 04:00:51;;;;;;;412.05;275.67;;;102.50;1638.40;;;;;;4917584;29;20036;-70
2021/01/20 04:03:17;;;;;;;504.52;334.95;;;77.50;1715.20;;;;;;4917349;29;20389;-70
2021/01/20 04:05:42;;;;;;;495.90;316.17;;;77.50;1715.20;;;;;;4917396;29;20032;-71
2021/01/20 04:08:08;;;;;;;492.13;325.30;;;77.70;1689.60;;;;;;4916926;29;20036;-70
2021/01/20 04:10:34;;;;;;;453.88;287.27;;;102.40;1689.60;;;;;;4917303;29;20032;-70
2021/01/20 04:12:59;;;;;;;446.77;284.98;;;77.50;1740.80;;;;;;4916961;29;20459;-70
2021/01/20 04:15:25;;;;;;;396.58;252.02;;;102.60;1664.00;;;;;;4917119;29;20360;-70
2021/01/20 04:17:50;;;;;;;320.92;198.95;;;102.90;1664.00;;;;;;4917050;29;20364;-70
2021/01/20 04:20:16;;;;;;;316.35;194.20;;;102.90;1638.40;;;;;;4916185;29;20039;-70
2021/01/20 04:22:42;;;;;;;313.63;188.20;;;102.90;1638.40;;;;;;4915945;29;20087;-70
2021/01/20 04:25:10;;;;;;;348.38;202.23;;;103.00;1612.80;;;;;;4916597;29;20065;-70
2021/01/20 04:27:36;;;;;;;323.88;193.45;;;103.00;1612.80;;;;;;4917106;29;20055;-71
2021/01/20 04:30:02;;;;;;;337.77;207.27;;;102.80;1638.40;;;;;;4916559;29;20517;-70
2021/01/20 04:32:28;;;;;;;293.00;178.75;;;102.60;1664.00;;;;;;4916788;29;20027;-70
2021/01/20 04:34:53;;;;;;;350.98;222.95;;;77.50;1715.20;;;;;;4916805;29;20032;-72
2021/01/20 04:37:19;;;;;;;326.02;199.27;;;102.50;1689.60;;;;;;4916844;29;20078;-71
2021/01/20 04:39:45;;;;;;;352.10;220.43;;;102.70;1638.40;;;;;;4916519;29;20391;-71
2021/01/20 04:42:11;;;;;;;280.95;168.52;;;103.00;1638.40;;;;;;4916585;29;20491;-70
2021/01/20 04:44:36;;;;;;;212.90;127.00;;;103.20;1587.20;;;;;;4916574;29;20024;-71
2021/01/20 04:47:03;;;;;;;180.15;112.63;;;102.60;1664.00;;;;;;4916838;29;20517;-71
2021/01/20 04:49:32;;;;;;;164.80;103.00;;;102.80;1638.40;;;;;;4916513;29;20035;-71
2021/01/20 04:51:58;;;;;;;157.98;98.30;;;102.90;1638.40;;;;;;4915569;29;20040;-71
2021/01/20 04:54:25;;;;;;;169.77;103.78;;;102.90;1664.00;;;;;;4916502;29;20032;-71
2021/01/20 04:56:51;;;;;;;177.60;110.32;;;103.20;1587.20;;;;;;4915662;29;20051;-73
2021/01/20 04:59:17;;;;;;;209.05;132.77;;;102.80;1664.00;;;;;;4916469;29;20028;-71
2021/01/20 05:01:43;;;;;;;156.65;94.97;;;103.00;1638.40;;;;;;4916241;29;20032;-71
2021/01/20 05:04:10;;;;;;;143.70;85.40;;;102.50;1689.60;;;;;;4916705;29;20028;-72
2021/01/20 05:06:36;;;;;;;149.07;92.88;;;77.50;1740.80;;;;;;4915269;29;20487;-72
2021/01/20 05:09:02;;;;;;;145.48;90.30;;;77.70;1715.20;;;;;;4916678;29;20060;-71
2021/01/20 05:11:42;;;;;;;135.10;86.68;;;102.80;1689.60;;;;;;4914891;29;20032;-75
2021/01/20 05:14:18;;;;;;;126.03;80.05;;;102.80;1664.00;;;;;;4916302;29;20058;-75
2021/01/20 05:16:50;;;;;;;129.63;81.10;;;103.00;1638.40;;;;;;4916368;29;20044;-73
2021/01/20 05:19:16;;;;;;;;;;;102.90;1664.00;;;;;;4916847;29;20028;-74
2021/01/20 05:21:41;;;;;;;151.90;91.30;;;102.70;1664.00;;;;;;4916276;29;20418;-70
2021/01/20 05:24:25;;;;;;;192.02;115.43;;;102.90;1689.60;;;;;;4915709;29;20048;-70
2021/01/20 05:26:51;;;;;;;228.07;142.20;;;103.10;1664.00;;;;;;4915776;29;20382;-73
2021/01/20 05:29:17;;;;;;;158.02;100.60;;;128.10;1664.00;;;;;;4915824;29;20035;-71
2021/01/20 05:31:43;;;;;;;143.38;96.18;;;103.30;1638.40;;;;;;4915583;29;20067;-71
2021/01/20 05:34:23;;;;;;;135.07;92.40;;;103.10;1638.40;;;;;;4918262;29;20043;-70
2021/01/20 05:37:09;;;;;;;154.75;105.82;;;103.10;1664.00;;;;;;4919791;29;20060;-71
2021/01/20 05:39:36;;;;;;;177.48;114.22;;;103.30;1638.40;;;;;;4919685;29;20028;-71
2021/01/20 05:42:12;;;;;;;146.90;99.68;;;128.00;1664.00;;;;;;4919987;29;20497;-71
2021/01/20 05:44:39;;;;;;;208.32;139.98;;;128.00;1664.00;;;;;;4920017;29;20029;-71
2021/01/20 05:47:12;;;;;;;182.63;123.57;;;103.30;1638.40;;;;;;4918498;29;20055;-71
2021/01/20 05:49:38;;;;;;;171.93;116.10;;;128.00;1689.60;;;;;;4919725;29;20056;-71
2021/01/20 05:52:13;;;;;;;169.57;109.93;;;128.20;1638.40;;;;;;4919504;29;20039;-71
2021/01/20 05:54:40;;;;;;;174.18;109.20;;;128.20;1638.40;;;;;;4919400;29;20163;-70
2021/01/20 05:57:20;;;;;;;179.35;106.25;;;103.20;1664.00;;;;;;4902823;29;20047;-71
2021/01/20 05:59:50;;;;;;;179.55;109.70;;;103.30;1638.40;;;;;;4919492;29;20111;-71
2021/01/20 06:02:18;;;;;;;194.68;125.72;;;128.00;1664.00;;;;;;4919508;29;20028;-71
2021/01/20 06:04:44;;;;;;;281.42;160.50;;;103.20;1638.40;;;;;;4918147;29;20052;-71
2021/01/20 06:07:14;;;;;;;267.23;155.02;;;103.00;1638.40;;;;;;4919516;29;20028;-71
2021/01/20 06:09:45;;;;;;;218.20;132.32;;;103.30;1612.80;;;;;;4919457;29;20032;-71
2021/01/20 06:12:12;;;;;;;207.38;130.90;;;128.10;1664.00;;;;;;4919250;29;20406;-71
2021/01/20 06:14:38;;;;;;;201.60;133.20;;;128.30;1638.40;;;;;;4919260;29;20065;-72
2021/01/20 06:17:14;;;;;;;213.45;135.95;;;103.10;1689.60;;;;;;4918862;29;20047;-72
2021/01/20 06:19:47;;;;;;;238.25;152.68;;;103.30;1664.00;;;;;;4919251;29;20138;-71
2021/01/20 06:22:16;;;;;;;260.10;166.60;;;128.00;1689.60;;;;;;4918928;29;20051;-71
2021/01/20 06:24:48;;;;;;;293.85;193.30;;;128.20;1664.00;;;;;;4917813;29;20035;-72
2021/01/20 06:27:19;;;;;;;298.08;193.95;;;128.20;1689.60;;;;;;4919120;29;20107;-71
2021/01/20 06:29:51;;;;;;;333.60;220.15;;;128.40;1689.60;;;;;;4919035;29;20176;-71
2021/01/20 06:32:21;;;;;;;376.50;244.77;;;128.00;1689.60;;;;;;4919170;29;20086;-71
2021/01/20 06:34:53;;;;;;;371.90;244.05;;;103.30;1689.60;;;;;;4917379;29;20024;-71
2021/01/20 06:37:40;;;;;;;353.48;236.77;;;103.30;1715.20;;;;;;4918454;29;20039;-71
2021/01/20 06:40:20;;;;;;;429.60;282.02;;;128.20;1689.60;;;;;;4918640;29;20021;-71
2021/01/20 06:42:48;;;;;;;430.52;283.55;;;128.20;1689.60;;;;;;4918669;29;20056;-71
2021/01/20 06:45:13;;;;;;;419.83;284.58;;;128.40;1664.00;;;;;;4917487;29;20452;-71
2021/01/20 06:47:57;;;;;;;419.38;286.42;;;128.30;1689.60;;;;;;4918736;29;20064;-72
2021/01/20 06:50:23;;;;;;;435.63;305.75;;;128.20;1715.20;;;;;;4918471;29;20028;-71
2021/01/20 06:53:09;;;;;;;438.83;305.98;;;103.20;1740.80;;;;;;4918557;29;20039;-72
2021/01/20 06:55:36;;;;;;;433.92;303.95;;;128.30;1715.20;;;;;;4918382;29;20052;-71
2021/01/20 06:58:23;;;;;;;438.88;307.08;;;128.20;1715.20;;;;;;4916967;29;20119;-71
2021/01/20 07:01:01;;;;;;;440.75;306.80;;;128.30;1715.20;;;;;;4918555;29;20024;-71
2021/01/20 07:03:44;;;;;;;430.88;304.08;;;128.60;1664.00;;;;;;4918485;29;20043;-71
2021/01/20 07:06:35;;;;;;;445.85;314.80;;;128.80;1638.40;;;;;;4918211;29;20035;-71
2021/01/20 07:09:04;;;;;;;483.70;350.45;;;128.50;1715.20;;;;;;4917956;29;20039;-71
2021/01/20 07:11:30;;;;;;;481.35;347.23;;;103.20;1766.40;;;;;;4918171;29;20498;-71
2021/01/20 07:13:55;;;;;;;486.88;348.52;;;128.00;1792.00;;;;;;4918156;29;20032;-71
2021/01/20 07:16:22;;;;;;;496.92;358.08;;;128.40;1740.80;;;;;;4918214;29;20067;-71
2021/01/20 07:18:50;;;;;;;524.03;381.67;;;128.50;1715.20;;;;;;4917921;29;20020;-71
2021/01/20 07:21:16;;;;;;;521.22;388.25;;;128.70;1689.60;;;;;;4918202;29;20016;-71
2021/01/20 07:23:42;;;;;;;528.08;387.00;;;153.60;1664.00;;;;;;4917864;29;20497;-72
2021/01/20 07:26:09;;;;;;;516.00;385.25;;;128.80;1689.60;;;;;;4916435;29;20460;-71
2021/01/20 07:28:36;;;;;;;567.03;417.30;;;128.50;1689.60;;;;;;4917798;29;20099;-71
2021/01/20 07:31:03;;;;;;;540.90;400.30;;;128.50;1715.20;;;;;;4917618;29;20079;-72
2021/01/20 07:33:29;;;;;;;579.97;438.38;;;128.50;1715.20;;;;;;4917913;29;20471;-71
2021/01/20 07:35:55;;;;;;;540.90;405.70;;;;;;;;;;4917875;29;20395;-72
2021/01/20 07:38:31;;;;;;;516.33;381.48;;;128.90;1689.60;;;;;;4917842;29;20036;-71
2021/01/20 07:40:57;;;;;;;461.20;328.13;;;153.60;1664.00;;;;;;4917343;29;20435;-71
2021/01/20 07:43:23;;;;;;;424.67;288.25;;;153.70;1638.40;;;;;;4917709;29;20028;-71
2021/01/20 07:45:53;;;;;;;412.63;287.00;;;153.90;1587.20;;;;;;4917511;29;20067;-71
2021/01/20 07:48:29;;;;;;;340.02;230.75;;;154.20;1587.20;;;;;;4917386;29;20035;-71
2021/01/20 07:50:55;;;;;;;298.88;205.07;;;154.30;1561.60;;;;;;4916386;29;20044;-72
2021/01/20 07:53:21;;;;;;;253.40;166.68;;;154.20;1561.60;;;;;;4917209;29;20062;-71
2021/01/20 07:55:52;;;;;;;272.45;180.43;;;154.30;1536.00;;;;;;4916915;29;20088;-70
2021/01/20 07:58:25;;;;;;;256.05;168.52;;;153.60;1638.40;;;;;;4917324;29;20031;-70
2021/01/20 08:00:50;;;;;;;385.95;262.15;;;153.70;1638.40;;;;;;4917030;29;20382;-70
2021/01/20 08:03:32;;;;;;;431.65;304.67;;;128.80;1664.00;;;;;;4900200;29;20086;-70
2021/01/20 08:05:58;;;;;;;466.33;343.58;;;;;;;;;;4916912;29;20032;-70
2021/01/20 08:08:23;;;;;;;442.38;321.88;;;154.00;1868.80;;;;;;4917105;29;20036;-71
2021/01/20 08:10:54;;;;;;;407.25;287.80;;;154.40;1612.80;;;;;;4917082;29;20364;-70
2021/01/20 08:13:20;;;;;;;372.83;255.83;;;179.20;1561.60;;;;;;4917218;29;20043;-70
2021/01/20 08:15:46;;;;;;;377.13;259.02;;;154.30;1587.20;;;;;;4916812;29;20024;-70
2021/01/20 08:18:14;;;;;;;466.70;334.20;;;154.10;1612.80;;;;;;4916942;29;20103;-71
2021/01/20 08:20:40;;;;;;;432.80;305.50;;;154.10;1612.80;;;;;;4915898;29;20029;-70
2021/01/20 08:23:27;;;;;;;382.23;263.63;;;154.20;1612.80;;;;;;4916571;29;20028;-71
2021/01/20 08:26:06;;;;;;;415.63;285.00;;;179.20;1561.60;;;;;;4917092;29;20111;-70
2021/01/20 08:28:32;;;;;;;448.55;311.20;;;179.90;1510.40;;;;;;4916948;29;20020;-70
2021/01/20 08:30:58;;;;;;;413.80;285.83;;;179.80;1536.00;;;;;;4917131;29;20444;-70
2021/01/20 08:33:24;;;;;;;491.70;341.80;;;179.80;1510.40;;;;;;4916904;29;20056;-71
2021/01/20 08:35:57;;;;;;;464.05;330.23;;;204.80;1484.80;;;;;;4916744;29;20032;-71
2021/01/20 08:38:28;;;;;;;448.25;326.48;;;204.90;1459.20;;;;;;4915733;29;20111;-70
2021/01/20 08:41:13;;;;;;;480.05;338.23;;;205.20;1459.20;;;;;;4916685;29;20092;-70
2021/01/20 08:43:39;;;;;;;502.40;360.67;;;205.30;1433.60;;;;;;4916887;29;20158;-71
2021/01/20 08:46:24;;;;;;;489.30;361.17;;;205.20;1459.20;;;;;;4916839;29;20518;-71
2021/01/20 08:48:59;;;;;;;544.75;415.50;;;205.40;1433.60;;;;;;4916480;29;20034;-70
2021/01/20 08:51:25;;;;;;;546.83;422.48;;;205.50;1433.60;;;;;;4916431;29;20047;-70
2021/01/20 08:53:51;;;;;;;597.47;458.17;;;205.30;1459.20;;;;;;4916508;29;20028;-70
2021/01/20 08:56:29;;;;;;;580.15;450.52;;;205.30;1459.20;;;;;;4915954;29;20048;-70
2021/01/20 08:58:55;;;;;;;602.58;465.95;;;205.20;1459.20;;;;;;4916527;29;20036;-70
2021/01/20 09:01:28;;;;;;;613.83;481.98;;;205.20;1459.20;;;;;;4916290;29;20024;-70
2021/01/20 09:03:59;;;;;;;606.28;471.85;;;205.10;1459.20;;;;;;4916308;29;20024;-70
2021/01/20 09:06:26;;;;;;;634.17;490.02;;;205.10;1484.80;;;;;;4916676;29;20027;-71
2021/01/20 09:08:52;;;;;;;635.60;492.38;;;205.30;1459.20;;;;;;4918358;29;20107;-71
2021/01/20 09:11:18;;;;;;;799.63;567.25;;;205.20;1484.80;;;;;;4920252;29;20024;-71
2021/01/20 09:13:44;;;;;;;638.40;495.17;;;205.50;1459.20;;;;;;4920151;29;20035;-70
2021/01/20 09:16:11;;;;;;;680.85;521.40;;;205.50;1433.60;;;;;;4920205;29;20131;-70
2021/01/20 09:18:36;;;;;;;646.58;503.35;;;205.60;1459.20;;;;;;4920021;29;20028;-70
2021/01/20 09:21:03;;;;;;;647.03;506.60;;;205.30;1484.80;;;;;;4920275;29;20480;-70
2021/01/20 09:23:29;;;;;;;632.60;495.92;;;205.30;1484.80;;;;;;4919810;29;20032;-71
2021/01/20 09:25:55;;;;;;;682.45;534.65;;;205.10;1484.80;;;;;;4919478;29;20444;-70
2021/01/20 09:28:22;;;;;;;668.17;527.35;;;205.10;1484.80;;;;;;4920056;29;20071;-70
2021/01/20 09:30:48;;;;;;;667.33;523.85;;;205.20;1484.80;;;;;;4919743;29;20026;-70
2021/01/20 09:33:14;;;;;;;678.75;534.58;;;205.20;1484.80;;;;;;4920036;29;20439;-71
2021/01/20 09:35:41;;;;;;;807.72;597.25;;;205.60;1484.80;;;;;;4919576;29;20478;-70
2021/01/20 09:38:07;;;;;;;722.00;566.75;;;205.70;1459.20;;;;;;4919996;29;20028;-71
2021/01/20 09:40:34;;;;;;;707.35;557.42;;;230.60;1433.60;;;;;;4918181;29;20043;-70
2021/01/20 09:42:59;;;;;;;715.70;557.92;;;230.50;1459.20;;;;;;4918288;29;20399;-71
2021/01/20 09:45:31;;;;;;;722.40;569.20;;;230.60;1433.60;;;;;;4919611;29;20043;-71
2021/01/20 09:47:59;;;;;;;726.25;565.55;;;230.90;1433.60;;;;;;4919474;29;20076;-71
2021/01/20 09:50:33;;;;;;;718.65;564.08;;;230.90;1408.00;;;;;;4919697;29;20159;-71
2021/01/20 09:52:59;;;;;;;728.63;571.72;;;231.00;1408.00;;;;;;4919169;29;20548;-71
2021/01/20 09:55:25;;;;;;;730.50;573.58;;;230.90;1408.00;;;;;;4919200;29;20060;-70
2021/01/20 09:57:50;;;;;;;724.67;576.35;;;231.00;1408.00;;;;;;4919195;29;20044;-70
2021/01/20 10:00:17;;;;;;;771.00;599.75;;;231.20;1382.40;;;;;;4919520;29;20383;-71
2021/01/20 10:02:42;;;;;;;756.92;591.78;;;231.00;1408.00;;;;;;4919161;29;20036;-71
2021/01/20 10:05:10;;;;;;;768.22;604.70;;;230.80;1408.00;;;;;;4919625;29;20387;-70
2021/01/20 10:07:37;;;;;;;763.22;597.97;;;231.00;1382.40;;;;;;4919399;29;20501;-71
2021/01/20 10:10:06;;;;;;;740.88;578.38;;;231.00;1408.00;;;;;;4919054;29;20024;-71
2021/01/20 10:12:32;;;;;;;737.70;580.63;;;231.20;1382.40;;;;;;4919424;29;20053;-71
2021/01/20 10:14:57;;;;;;;726.15;577.60;;;231.30;1356.80;;;;;;4919212;29;20055;-70
2021/01/20 10:17:23;;;;;;;712.80;572.47;;;231.20;1382.40;;;;;;4919319;29;20119;-70
2021/01/20 10:19:49;;;;;;;755.08;595.25;;;231.10;1382.40;;;;;;4918642;29;20028;-70
2021/01/20 10:22:15;;;;;;;712.20;570.35;;;256.00;1356.80;;;;;;4919065;29;20028;-70
2021/01/20 10:24:40;;;;;;;904.08;674.50;;;256.10;1356.80;;;;;;4918926;29;20036;-70
2021/01/20 10:27:06;;;;;;;688.35;553.58;;;256.10;1382.40;;;;;;4918821;29;20067;-70
2021/01/20 10:29:32;;;;;;;628.90;508.08;;;256.20;1331.20;;;;;;4918758;29;20036;-70
2021/01/20 10:31:57;;;;;;;645.05;516.40;;;256.40;1305.60;;;;;;4918591;29;20025;-71
2021/01/20 10:34:23;;;;;;;651.90;524.85;;;256.60;1280.00;;;;;;4918808;29;20043;-71
2021/01/20 10:36:49;;;;;;;679.70;546.88;;;256.70;1280.00;;;;;;4917249;29;20064;-70
2021/01/20 10:39:15;;;;;;;696.00;561.45;;;256.70;1305.60;;;;;;4917354;29;20551;-70
2021/01/20 10:41:40;;;;;;;694.00;553.90;;;256.10;1356.80;;;;;;4918300;29;20040;-71
2021/01/20 10:44:07;;;;;;;683.65;550.28;;;256.30;1331.20;;;;;;4917408;29;20039;-70
2021/01/20 10:46:33;;;;;;;687.33;550.40;;;256.00;1356.80;;;;;;4918402;29;20107;-70
2021/01/20 10:49:00;;;;;;;678.10;542.53;;;256.20;1331.20;;;;;;4918703;29;20406;-70
2021/01/20 10:51:34;;;;;;;753.47;599.08;;;256.30;1331.20;;;;;;4918223;29;20024;-70
2021/01/20 10:54:04;;;;;;;744.42;585.88;;;256.60;1305.60;;;;;;4918090;29;20110;-70
2021/01/20 10:56:30;;;;;;;731.88;582.13;;;256.90;1305.60;;;;;;4917961;29;20177;-70
2021/01/20 10:58:56;;;;;;;720.08;565.72;;;256.90;1305.60;;;;;;4916948;29;20025;-70
2021/01/20 11:01:22;;;;;;;731.67;575.67;;;281.70;1331.20;;;;;;4918381;29;20024;-70
2021/01/20 11:03:48;;;;;;;748.63;577.55;;;281.80;1331.20;;;;;;4918062;29;20079;-70
2021/01/20 11:06:15;;;;;;;726.65;564.53;;;281.80;1331.20;;;;;;4918181;29;20111;-70
2021/01/20 11:08:41;;;;;;;685.47;535.70;;;282.00;1305.60;;;;;;4918296;29;20127;-70
2021/01/20 11:11:06;;;;;;;686.30;542.95;;;281.80;1305.60;;;;;;4918463;29;20479;-70
2021/01/20 11:13:33;;;;;;;675.08;530.85;;;281.80;1305.60;;;;;;4917861;29;20503;-70
2021/01/20 11:15:59;;;;;;;682.30;534.58;;;281.90;1280.00;;;;;;4917938;29;20032;-70
2021/01/20 11:18:25;;;;;;;660.47;523.60;;;282.20;1280.00;;;;;;4917913;29;20028;-70
2021/01/20 11:20:51;;;;;;;673.47;525.78;;;282.20;1254.40;;;;;;4917740;29;20031;-70
2021/01/20 11:23:17;;;;;;;678.17;534.28;;;281.90;1280.00;;;;;;4918047;29;20067;-70
2021/01/20 11:25:48;;;;;;;715.10;566.15;;;282.30;1228.80;;;;;;4917755;29;20438;-70
2021/01/20 11:28:14;;;;;;;669.00;523.47;;;282.50;1228.80;;;;;;4917864;29;20087;-71
2021/01/20 11:30:41;;;;;;;658.75;529.33;;;307.20;1228.80;;;;;;4917221;29;20039;-71
2021/01/20 11:33:11;;;;;;;644.95;505.35;;;307.40;1203.20;;;;;;4917662;29;20032;-70
2021/01/20 11:35:37;;;;;;;662.85;517.05;;;307.30;1203.20;;;;;;4917722;29;20383;-70
2021/01/20 11:38:04;;;;;;;689.25;539.72;;;307.20;1254.40;;;;;;4917669;29;20063;-70
2021/01/20 11:40:31;;;;;;;698.92;550.80;;;282.30;1254.40;;;;;;4917764;29;20020;-70
2021/01/20 11:42:58;;;;;;;708.35;552.38;;;282.30;1228.80;;;;;;4917408;29;20111;-70
2021/01/20 11:45:29;;;;;;;710.65;546.15;;;282.50;1228.80;;;;;;4917589;29;20149;-71
2021/01/20 11:47:55;;;;;;;663.05;521.13;;;307.30;1228.80;;;;;;4917359;29;20475;-70
2021/01/20 11:50:22;;;;;;;687.92;529.75;;;307.30;1228.80;;;;;;4917378;29;20043;-70
2021/01/20 11:52:49;;;;;;;670.80;523.88;;;307.20;1228.80;;;;;;4917142;29;20056;-71
2021/01/20 11:55:15;;;;;;;710.40;546.92;;;307.20;1228.80;;;;;;4917214;29;20066;-71
2021/01/20 11:57:41;;;;;;;669.58;525.78;;;307.30;1228.80;;;;;;4917223;29;20044;-70